createdAt,value
2023-02-15T00:00:45.265Z,1.76
2023-02-15T00:05:45.205Z,1.74
2023-02-15T00:10:45.132Z,1.74
2023-02-15T00:15:45.114Z,1.66
2023-02-15T00:20:45.003Z,1.53
2023-02-15T00:25:44.932Z,1.28
2023-02-15T00:30:44.979Z,1.09
2023-02-15T00:35:44.800Z,0.94
2023-02-15T00:40:44.746Z,0.86
2023-02-15T00:45:44.676Z,0.79
2023-02-15T00:50:44.613Z,0.75
2023-02-15T00:55:44.550Z,0.72
2023-02-15T01:00:44.483Z,0.69
2023-02-15T01:05:44.422Z,0.75
2023-02-15T01:10:44.354Z,0.82
2023-02-15T01:15:44.358Z,0.79
2023-02-15T01:20:44.227Z,0.77
2023-02-15T01:25:44.166Z,0.80
2023-02-15T01:30:44.239Z,0.72
2023-02-15T01:35:44.036Z,0.64
2023-02-15T01:40:43.971Z,0.64
2023-02-15T01:45:43.908Z,0.62
2023-02-15T01:50:43.845Z,0.62
2023-02-15T01:55:43.775Z,0.65
2023-02-15T02:00:43.712Z,0.61
2023-02-15T02:05:43.648Z,0.61
2023-02-15T02:10:43.575Z,0.61
2023-02-15T02:15:43.563Z,0.55
2023-02-15T02:20:43.446Z,0.54
2023-02-15T02:25:43.383Z,0.54
2023-02-15T02:30:43.377Z,0.55
2023-02-15T02:35:43.244Z,0.57
2023-02-15T02:40:43.199Z,0.52
2023-02-15T02:45:43.115Z,0.47
2023-02-15T02:50:43.064Z,0.47
2023-02-15T02:55:43.003Z,0.34
2023-02-15T03:00:42.928Z,0.11
2023-02-15T03:05:42.867Z,-0.01
2023-02-15T03:10:42.805Z,0.00
2023-02-15T03:15:42.825Z,-0.05
2023-02-15T03:20:42.677Z,-0.09
2023-02-15T03:25:42.620Z,-0.10
2023-02-15T03:30:42.548Z,-0.07
2023-02-15T03:35:42.475Z,-0.01
2023-02-15T03:40:42.426Z,0.03
2023-02-15T03:45:42.347Z,0.01
2023-02-15T03:50:42.290Z,0.01
2023-02-15T03:55:42.218Z,-0.02
2023-02-15T04:00:42.160Z,-0.07
2023-02-15T04:05:42.082Z,-0.14
2023-02-15T04:10:42.026Z,-0.14
2023-02-15T04:15:41.950Z,-0.16
2023-02-15T04:20:41.897Z,-0.23
2023-02-15T04:25:41.817Z,-0.21
2023-02-15T04:30:41.757Z,-0.23
2023-02-15T04:35:41.685Z,-0.25
2023-02-15T04:40:41.631Z,-0.23
2023-02-15T04:45:41.635Z,-0.21
2023-02-15T04:50:41.507Z,-0.20
2023-02-15T04:55:41.429Z,-0.25
2023-02-15T05:00:41.362Z,-0.26
2023-02-15T05:05:41.300Z,-0.25
2023-02-15T05:10:41.231Z,-0.28
2023-02-15T05:15:42.282Z,-0.25
2023-02-15T05:20:41.098Z,-0.31
2023-02-15T05:25:41.035Z,-0.29
2023-02-15T05:30:41.243Z,-0.28
2023-02-15T05:35:40.896Z,-0.18
2023-02-15T05:40:40.841Z,-0.06
2023-02-15T05:45:40.809Z,0.00
2023-02-15T05:50:40.708Z,0.05
2023-02-15T05:55:40.634Z,0.15
2023-02-15T06:00:40.577Z,0.12
2023-02-15T06:05:40.508Z,0.16
2023-02-15T06:10:40.449Z,0.19
2023-02-15T06:15:40.435Z,0.21
2023-02-15T06:20:40.324Z,0.21
2023-02-15T06:25:40.258Z,0.19
2023-02-15T06:30:40.290Z,0.16
2023-02-15T06:35:40.157Z,0.16
2023-02-15T06:40:40.224Z,0.21
2023-02-15T06:45:40.003Z,0.25
2023-02-15T06:50:39.938Z,0.31
2023-02-15T06:55:39.855Z,0.37
2023-02-15T07:00:39.797Z,0.68
2023-02-15T07:05:39.721Z,1.56
2023-02-15T07:10:39.664Z,2.52
2023-02-15T07:15:39.640Z,3.37
2023-02-15T07:20:39.538Z,4.31
2023-02-15T07:25:39.464Z,5.14
2023-02-15T07:30:39.538Z,5.83
2023-02-15T07:35:39.334Z,6.62
2023-02-15T07:40:39.282Z,7.54
2023-02-15T07:45:39.206Z,8.44
2023-02-15T07:50:39.148Z,9.04
2023-02-15T07:55:39.078Z,9.79
2023-02-15T08:00:39.007Z,10.38
2023-02-15T08:05:38.949Z,10.92
2023-02-15T08:10:38.878Z,11.66
2023-02-15T08:15:38.805Z,12.68
2023-02-15T08:20:38.745Z,13.36
2023-02-15T08:25:38.676Z,13.84
2023-02-15T08:30:38.713Z,14.47
2023-02-15T08:35:38.542Z,15.27
2023-02-15T08:40:38.492Z,15.97
2023-02-15T08:45:38.450Z,16.15
2023-02-15T08:50:38.348Z,16.30
2023-02-15T08:55:38.289Z,16.93
2023-02-15T09:00:38.216Z,17.36
2023-02-15T09:05:38.150Z,17.67
2023-02-15T09:10:38.085Z,17.69
2023-02-15T09:15:38.015Z,17.19
2023-02-15T09:20:37.949Z,17.12
2023-02-15T09:25:37.880Z,17.30
2023-02-15T09:30:37.994Z,17.44
2023-02-15T09:35:37.735Z,17.27
2023-02-15T09:40:37.685Z,17.24
2023-02-15T09:45:37.662Z,17.23
2023-02-15T09:50:37.554Z,17.91
2023-02-15T09:55:37.468Z,18.43
2023-02-15T10:00:37.425Z,18.56
2023-02-15T10:05:37.341Z,18.95
2023-02-15T10:10:37.284Z,19.02
2023-02-15T10:15:37.212Z,18.81
2023-02-15T10:20:37.162Z,18.50
2023-02-15T10:25:37.097Z,19.17
2023-02-15T10:30:37.186Z,19.70
2023-02-15T10:35:36.952Z,19.77
2023-02-15T10:40:36.897Z,19.73
2023-02-15T10:45:36.828Z,19.63
2023-02-15T10:50:36.779Z,19.30
2023-02-15T10:55:36.700Z,19.36
2023-02-15T11:00:36.651Z,19.35
2023-02-15T11:05:36.572Z,18.99
2023-02-15T11:10:36.528Z,18.40
2023-02-15T11:15:36.568Z,17.54
2023-02-15T11:20:36.391Z,17.33
2023-02-15T11:25:36.307Z,17.04
2023-02-15T11:30:36.297Z,16.68
2023-02-15T11:35:36.185Z,15.83
2023-02-15T11:40:36.134Z,15.61
2023-02-15T11:45:36.039Z,15.23
2023-02-15T11:50:35.982Z,15.70
2023-02-15T11:55:35.931Z,15.21
2023-02-15T12:00:35.847Z,14.73
2023-02-15T12:05:35.771Z,14.63
2023-02-15T12:10:35.715Z,14.55
2023-02-15T12:15:36.044Z,14.26
2023-02-15T12:20:35.580Z,13.82
2023-02-15T12:25:35.508Z,13.59
2023-02-15T12:30:35.521Z,13.09
2023-02-15T12:35:35.570Z,12.87
2023-02-15T12:40:35.326Z,12.83
2023-02-15T12:45:35.241Z,12.76
2023-02-15T12:50:35.419Z,12.72
2023-02-15T12:55:35.115Z,12.45
2023-02-15T13:00:35.074Z,12.21
2023-02-15T13:05:34.976Z,12.05
2023-02-15T13:10:34.928Z,11.90
2023-02-15T13:15:34.844Z,11.84
2023-02-15T13:20:34.805Z,11.84
2023-02-15T13:25:34.709Z,11.87
2023-02-15T13:30:34.728Z,11.88
2023-02-15T13:35:34.577Z,11.96
2023-02-15T13:40:34.518Z,12.01
2023-02-15T13:45:34.540Z,12.05
2023-02-15T13:50:34.389Z,12.06
2023-02-15T13:55:34.312Z,12.06
2023-02-15T14:00:34.253Z,12.03
2023-02-15T14:05:34.182Z,12.02
2023-02-15T14:10:34.947Z,11.98
2023-02-15T14:15:34.043Z,11.87
2023-02-15T14:20:33.993Z,11.81
2023-02-15T14:25:34.574Z,11.70
2023-02-15T14:30:34.005Z,11.60
2023-02-15T14:35:33.798Z,11.47
2023-02-15T14:40:33.722Z,11.32
2023-02-15T14:45:35.020Z,11.27
2023-02-15T14:50:33.584Z,11.23
2023-02-15T14:55:33.524Z,11.16
2023-02-15T15:00:33.450Z,11.17
2023-02-15T15:05:33.389Z,11.23
2023-02-15T15:10:33.320Z,11.18
2023-02-15T15:15:33.367Z,11.14
2023-02-15T15:20:33.186Z,11.11
2023-02-15T15:25:33.122Z,11.03
2023-02-15T15:30:33.148Z,10.93
2023-02-15T15:35:32.972Z,10.85
2023-02-15T15:40:32.917Z,10.74
2023-02-15T15:45:32.834Z,10.58
2023-02-15T15:50:32.784Z,10.42
2023-02-15T15:55:32.701Z,10.30
2023-02-15T16:00:32.662Z,10.16
2023-02-15T16:05:32.592Z,9.99
2023-02-15T16:10:32.512Z,9.86
2023-02-15T16:15:32.463Z,9.72
2023-02-15T16:20:32.386Z,9.53
2023-02-15T16:25:32.334Z,9.27
2023-02-15T16:30:32.311Z,9.13
2023-02-15T16:35:32.180Z,8.99
2023-02-15T16:40:32.107Z,8.73
2023-02-15T16:45:32.045Z,8.44
2023-02-15T16:50:31.975Z,8.14
2023-02-15T16:55:31.903Z,8.02
2023-02-15T17:00:31.925Z,7.97
2023-02-15T17:05:31.772Z,7.92
2023-02-15T17:10:31.720Z,7.82
2023-02-15T17:15:31.642Z,7.78
2023-02-15T17:20:34.254Z,7.72
2023-02-15T17:25:31.506Z,7.63
2023-02-15T17:30:31.534Z,7.54
2023-02-15T17:35:31.382Z,7.38
2023-02-15T17:40:31.302Z,7.31
2023-02-15T17:45:31.368Z,7.25
2023-02-15T17:50:31.176Z,7.17
2023-02-15T17:55:31.116Z,6.99
2023-02-15T18:00:31.043Z,6.87
2023-02-15T18:05:30.986Z,6.80
2023-02-15T18:10:30.911Z,6.71
2023-02-15T18:15:30.868Z,6.61
2023-02-15T18:20:30.783Z,6.58
2023-02-15T18:25:30.789Z,6.58
2023-02-15T18:30:30.725Z,6.58
2023-02-15T18:35:30.594Z,6.62
2023-02-15T18:40:30.520Z,6.66
2023-02-15T18:45:30.527Z,6.63
2023-02-15T18:50:30.378Z,6.56
2023-02-15T18:55:30.314Z,6.51
2023-02-15T19:00:30.242Z,6.51
2023-02-15T19:05:30.227Z,6.56
2023-02-15T19:10:30.114Z,6.53
2023-02-15T19:15:30.060Z,6.43
2023-02-15T19:20:29.986Z,6.29
2023-02-15T19:25:29.939Z,6.22
2023-02-15T19:30:30.087Z,6.12
2023-02-15T19:35:29.804Z,6.07
2023-02-15T19:40:29.724Z,5.99
2023-02-15T19:45:29.680Z,5.89
2023-02-15T19:50:29.585Z,5.82
2023-02-15T19:55:29.548Z,5.73
2023-02-15T20:00:29.466Z,5.65
2023-02-15T20:05:29.401Z,5.56
2023-02-15T20:10:29.324Z,5.54
2023-02-15T20:15:29.335Z,5.53
2023-02-15T20:20:29.186Z,5.50
2023-02-15T20:25:29.124Z,5.45
2023-02-15T20:30:29.127Z,5.40
2023-02-15T20:35:28.978Z,5.37
2023-02-15T20:40:28.918Z,5.40
2023-02-15T20:45:28.853Z,5.42
2023-02-15T20:50:28.769Z,5.46
2023-02-15T20:55:28.712Z,5.42
2023-02-15T21:00:28.639Z,5.38
2023-02-15T21:05:28.574Z,5.32
2023-02-15T21:10:28.498Z,5.29
2023-02-15T21:15:28.446Z,5.24
2023-02-15T21:20:28.366Z,5.20
2023-02-15T21:25:28.307Z,5.17
2023-02-15T21:30:28.366Z,5.13
2023-02-15T21:35:28.176Z,5.07
2023-02-15T21:40:28.115Z,4.99
2023-02-15T21:45:28.040Z,4.86
2023-02-15T21:50:27.991Z,4.77
2023-02-15T21:55:27.905Z,4.63
2023-02-15T22:00:27.873Z,4.53
2023-02-15T22:05:27.783Z,4.45
2023-02-15T22:10:27.700Z,4.42
2023-02-15T22:15:27.644Z,4.41
2023-02-15T22:20:27.565Z,4.37
2023-02-15T22:25:27.504Z,4.30
2023-02-15T22:30:27.543Z,4.13
2023-02-15T22:35:27.384Z,3.98
2023-02-15T22:40:27.298Z,3.97
2023-02-15T22:45:27.274Z,3.87
2023-02-15T22:50:27.166Z,3.85
2023-02-15T22:55:27.108Z,3.85
2023-02-15T23:00:27.039Z,3.82
2023-02-15T23:05:27.030Z,3.75
2023-02-15T23:10:26.903Z,3.67
2023-02-15T23:15:26.850Z,3.69
2023-02-15T23:20:26.776Z,3.67
2023-02-15T23:25:26.715Z,3.62
2023-02-15T23:30:26.694Z,3.62
2023-02-15T23:35:26.578Z,3.59
2023-02-15T23:40:26.514Z,3.54
2023-02-15T23:45:26.452Z,3.52
2023-02-15T23:50:26.395Z,3.50
2023-02-15T23:55:26.319Z,3.47
